Archival Weather

Chicago O'Hare International

Chicago, Illinois (KORD)

Report from: Wednesday, December 14, 2022 6:51 PM CST
Current time: Friday, June 21, 2024 7:58 PM CDT

Current weather – Weather history – Daily summaries
Weather forecast

Present weatherLight rain, mist
Temperature5.0°C (41.0°F)
Wind chill1.3°C (34.3°F)
Dew point3.3°C (37.9°F)
Winds 10 kts (5.1 m/s, 11.5 mph) East (90°)
Visibility4 mi. (6.4 km)
Clouds Ceiling: Broken clouds 600 ft. (183 m)
Overcast 1,100 ft. (335 m)
Altimeter29.66 in.Hg (1004 mB)
Precipitiation0.06 in. (2 mm)
Relative humidity89 %
Density altitude-806 ft. (-246 m)
Sea-level pressure100.5 kPa (1005 mB, 29.67 in.Hg)
Remarks Automated weather observing station with precipitation discriminator
Flight conditions Instrument Meteorological Conditions
Raw dataKORD 150051Z 09010KT 4SM -RA BR BKN006 OVC011 05/03 A2966 RMK AO2 SLP048 P0006 T00500033
An error has occurred. This application may no longer respond until reloaded. Reload 🗙